• Join FlightAware (Why Join?)
  • Login
  • US Flag 
04:34PM EDT


 

Airport Tracker/Info


-or-


 

Live Flight TrackerFlight Track Log ✈ AAY855 ✈ 05-Mar-2014 ✈ KSBN - KPIE

Flight Track Log - Related Links

Times and Time Zones

All times are in EST time to prevent confusion due to time zone crossing. See the AAY855 flight status page for this flight to view local times or setup timezone preferences in your user account.

Time Position Orientation Groundspeed Altitude Reporting Facility
EST Latitude Longitude Course Direction KTS MPH feet Rate Location/Type
08:06PM 41.6728 -86.2256 131° Southeast 188 216 4,000  Level Chicago Center
08:07PM 41.6258 -86.1564 132° Southeast 243 280 6,700 2,640 Climbing Chicago Center
08:08PM 41.5764 -86.0803 131° Southeast 268 308 9,500 1,740 Climbing Chicago Center
08:09PM 41.5233 -85.9975 131° Southeast 293 337 10,300 1,560 Climbing Chicago Center
08:10PM 41.4436 -85.8783 132° Southeast 359 413 12,800 2,280 Climbing Chicago Center
08:11PM 41.2733 -85.6408 131° Southeast  Level FlightAware Approximate
08:11PM 41.3719 -85.7750 133° Southeast 380 437 15,100  Level Chicago Center
08:12PM 41.2778 -85.7053 151° Southeast 391 450 17,100 1,980 Climbing Chicago Center
08:13PM 41.1797 -85.6353 152° Southeast 399 459 19,200 2,040 Climbing Chicago Center
08:14PM 41.0539 -85.5753 160° South 402 463 21,400 1,800 Climbing Chicago Center
08:15PM 40.9419 -85.5500 170° South 410 472 23,000 1,200 Climbing Chicago Center
08:17PM 40.8289 -85.5314 173° South 410 472 24,000 480 Climbing Chicago Center
08:18PM 40.7142 -85.5117 173° South 415 478 24,000 720 Level Chicago Center
08:19PM 40.5867 -85.4908 173° South 414 476 25,500 1,560 Climbing Chicago Center
08:20PM 40.4683 -85.4700 172° South 425 489 27,300 1,380 Climbing Chicago Center
08:21PM 40.3492 -85.4508 173° South 429 494 28,400 1,200 Climbing Chicago Center
08:21PM 40.2528 -85.4347 173° South 428 493 29,500 1,080 Climbing Indianapolis Center
08:22PM 40.1314 -85.4144 173° South 432 497 30,400 1,080 Climbing Indianapolis Center
08:23PM 40.0078 -85.3939 173° South 439 505 31,800 1,200 Climbing Indianapolis Center
08:24PM 39.8878 -85.3731 172° South 439 505 33,000 1,020 Climbing Indianapolis Center
08:26PM 39.7667 -85.3539 173° South 438 504 34,000 1,080 Climbing Indianapolis Center
08:27PM 39.6439 -85.3347 173° South 439 505 35,300 420 Climbing Indianapolis Center
08:32PM 38.9634 -85.2254 173° South 448 516 37,000 240 Climbing FlightAware ADS-B (KPMH)
08:32PM 38.9017 -85.2157 173° South 448 516 37,000  Level FlightAware ADS-B (KPMH)
08:33PM 38.8343 -85.2050 173° South 448 516 37,000  Level FlightAware ADS-B (KPMH)
08:34PM 38.7584 -85.1929 173° South 446 513 37,000  Level FlightAware ADS-B (KPMH)
08:34PM 38.7070 -85.1846 173° South 444 511 37,000  Level FlightAware ADS-B (KPMH)
08:35PM 38.5707 -85.1631 173° South 441 507 37,000  Level FlightAware ADS-B (KBRY)
08:36PM 38.5095 -85.1534 173° South 440 506 37,000  Level FlightAware ADS-B
08:36PM 38.4463 -85.1435 173° South 438 504 37,000  Level FlightAware ADS-B (KBRY)
08:37PM 38.3846 -85.1339 173° South 436 502 37,000  Level FlightAware ADS-B
08:37PM 38.3010 -85.1210 173° South 433 498 37,000  Level FlightAware ADS-B
08:38PM 38.2407 -85.1116 173° South 432 497 37,000  Level FlightAware ADS-B
08:38PM 38.1814 -85.1024 173° South 432 497 37,000  Level FlightAware ADS-B
08:39PM 38.0958 -85.0890 173° South 431 496 37,000  Level FlightAware ADS-B (KBRY)
08:40PM 38.0090 -85.0756 173° South 431 496 37,000  Level FlightAware ADS-B
08:41PM 37.8558 -85.0519 173° South 429 494 37,000  Level FlightAware ADS-B (KBRY)
08:42PM 37.7328 -85.0330 173° South 426 490 37,000  Level FlightAware ADS-B (KBRY)
08:43PM 37.6174 -85.0153 173° South 422 486 37,000  Level FlightAware ADS-B (KBRY)
08:44PM 37.5306 -85.0019 173° South 421 484 37,000  Level FlightAware ADS-B
08:45PM 37.4396 -84.9881 173° South 421 484 37,000  Level FlightAware ADS-B
08:45PM 37.3544 -84.9752 173° South 420 483 37,000  Level FlightAware ADS-B
08:46PM 37.2676 -84.9618 173° South 421 484 37,000  Level FlightAware ADS-B (KBRY)
08:47PM 37.2340 -84.9566 173° South 422 486 37,000  Level FlightAware ADS-B
08:47PM 37.1499 -84.9439 173° South 422 486 37,000  Level FlightAware ADS-B
08:48PM 37.0634 -84.9309 173° South 421 484 37,000  Level FlightAware ADS-B
08:48PM 37.0380 -84.9263 169° South 425 489 37,000  Level FlightAware ADS-B
08:49PM 36.9775 -84.8986 156° South 442 509 37,000  Level FlightAware ADS-B
08:49PM 36.9089 -84.8610 157° South 436 502 37,000  Level FlightAware ADS-B
08:50PM 36.8142 -84.8098 157° South 433 498 37,000  Level FlightAware ADS-B (KBRY)
08:51PM 36.7046 -84.7620 176° South 410 472 37,000  Level FlightAware ADS-B (KBRY)
08:52PM 36.5869 -84.7495 175° South 414 476 37,000  Level FlightAware ADS-B (KBRY)
08:53PM 36.4706 -84.7366 175° South 417 480 37,000  Level FlightAware ADS-B (KBRY)
08:54PM 36.3540 -84.7240 175° South 421 484 37,000  Level FlightAware ADS-B (KBRY)
08:55PM 36.2388 -84.7113 175° South 423 487 37,000  Level FlightAware ADS-B (KBRY)
08:56PM 36.1666 -84.7034 175° South 423 487 37,000  Level FlightAware ADS-B (KBRY)
08:57PM 36.0640 -84.6923 175° South 422 486 37,000 60 Level FlightAware ADS-B (KBRY)
08:57PM 36.0640 -84.6923 175° South 418 481 37,100  Climbing FlightAware ADS-B (KBRY)
08:59PM 35.8080 -84.6646 175° South 410 472 37,000 -60 Descending FlightAware ADS-B (KMDQ)
09:02PM 35.4464 -84.6257 175° South 387 445 37,000  Level FlightAware ADS-B (KMDQ)
09:03PM 35.3595 -84.6164 175° South 387 445 37,000  Level FlightAware ADS-B (KMDQ)
09:04PM 35.2511 -84.6047 175° South 389 448 37,000  Level FlightAware ADS-B (KMDQ)
09:05PM 35.1744 -84.5978 175° South 397 457 37,000  Level Atlanta Center
09:06PM 35.0661 -84.5869 175° South 397 457 37,000  Level Atlanta Center
09:07PM 34.9597 -84.5761 175° South 397 457 37,000  Level Atlanta Center
09:08PM 34.8492 -84.5653 175° South 397 457 37,000  Level Atlanta Center
09:09PM 34.7408 -84.5544 175° South 397 457 37,000  Level Atlanta Center
09:10PM 34.6344 -84.5386 173° South 397 457 37,000  Level Atlanta Center
09:11PM 34.5364 -84.5281 175° South 386 444 37,000  Level Atlanta Center
09:12PM 34.4258 -84.5172 175° South 398 458 37,000  Level Atlanta Center
09:13PM 34.3153 -84.5067 175° South 398 458 37,000  Level Atlanta Center
09:14PM 34.2047 -84.4933 174° South 404 465 37,000  Level Atlanta Center
09:15PM 34.0836 -84.4828 176° South 404 465 37,000  Level Atlanta Center
09:16PM 33.9772 -84.4722 175° South 398 458 37,000  Level Atlanta Center
09:17PM 33.8708 -84.4617 175° South 398 458 37,000  Level Atlanta Center
09:18PM 33.7603 -84.4511 175° South 398 458 37,000  Level Atlanta Center
09:19PM 33.6517 -84.4406 175° South 398 458 37,000  Level Atlanta Center
09:20PM 33.5556 -84.4378 179° South 391 450 37,000  Level Atlanta Center
09:21PM 33.4492 -84.4347 179° South 386 444 37,000  Level Atlanta Center
09:22PM 33.3406 -84.4342 180° South 386 444 37,000  Level Atlanta Center
09:23PM 33.2322 -84.4311 179° South 386 444 37,000  Level Atlanta Center
09:24PM 33.1258 -84.4283 179° South 381 438 37,000  Level Atlanta Center
09:25PM 33.0192 -84.4303 181° South 388 447 37,000  Level Atlanta Center
09:26PM 32.9003 -84.4272 179° South 388 447 37,000  Level Atlanta Center
09:27PM 32.7939 -84.4219 178° South 383 441 37,000  Level Atlanta Center
09:28PM 32.6875 -84.4092 174° South 383 441 37,000  Level Atlanta Center
09:29PM 32.5789 -84.3889 171° South 395 455 37,000  Level Atlanta Center
09:30PM 32.4706 -84.3686 171° South 395 455 37,000  Level Atlanta Center
09:31PM 32.3619 -84.3461 170° South 400 460 37,000  Level Atlanta Center
09:32PM 32.2514 -84.3286 172° South 400 460 37,000  Level Atlanta Center
09:33PM 32.1450 -84.3086 171° South 400 460 37,000  Level Atlanta Center
09:34PM 32.0322 -84.2886 171° South 400 460 37,000  Level Atlanta Center
09:34PM 31.9856 -84.2789 170° South 411 473 37,000  Level Jacksonville Center
09:35PM 31.8772 -84.2603 172° South 416 479 37,000  Level Jacksonville Center
09:36PM 31.7689 -84.2414 172° South 405 466 37,000  Level Jacksonville Center
09:37PM 31.6628 -84.2203 170° South 400 460 37,000  Level Jacksonville Center
09:38PM 31.5542 -84.2019 172° South 400 460 37,000  Level Jacksonville Center
09:44PM 30.8813 -84.0800 171° South 386 444 37,000  Level FlightAware ADS-B (KTLH)
09:45PM 30.8222 -84.0695 172° South 381 438 37,000  Level FlightAware ADS-B (KTLH)
09:46PM 30.7429 -84.0558 172° South 377 434 37,000  Level FlightAware ADS-B (KTLH)
09:46PM 30.6762 -84.0442 171° South 372 428 37,000  Level FlightAware ADS-B (KTLH)
09:47PM 30.6255 -84.0352 172° South 370 426 37,000  Level FlightAware ADS-B (KTLH)
09:47PM 30.5753 -84.0263 171° South 368 423 37,000  Level FlightAware ADS-B (KTLH)
09:48PM 30.5177 -84.0161 171° South 367 422 37,000  Level FlightAware ADS-B (KTLH)
09:49PM 30.4372 -84.0020 171° South 367 422 37,000  Level FlightAware ADS-B (KTLH)
09:49PM 30.3931 -83.9943 171° South 368 423 37,000  Level FlightAware ADS-B (KTLH)
09:50PM 30.3372 -83.9846 172° South 371 427 37,000  Level FlightAware ADS-B (KTLH)
09:50PM 30.2684 -83.9726 171° South 374 430 37,000  Level FlightAware ADS-B (KTLH)
09:51PM 30.2161 -83.9634 171° South 378 435 37,000  Level FlightAware ADS-B (KTLH)
09:51PM 30.1504 -83.9519 171° South 382 440 37,000  Level FlightAware ADS-B (KTLH)
09:53PM 30.0086 -83.9273 171° South 381 438 37,100 -180 Climbing FlightAware ADS-B (KTLH)
09:54PM 29.9179 -83.9115 172° South 374 430 36,600 -900 Descending FlightAware ADS-B (KTLH)
09:54PM 29.8742 -83.9058 172° South 377 434 35,800 -1,140 Descending Jacksonville Center
09:55PM 29.7681 -83.8664 162° South 382 440 34,900 -420 Descending Jacksonville Center
09:56PM 29.6661 -83.7983 150° Southeast 402 463 35,000  Climbing Jacksonville Center
09:57PM 29.5622 -83.7283 150° Southeast 413 475 35,000 -840 Level Jacksonville Center
09:58PM 29.4603 -83.6653 152° Southeast 418 481 33,400 -2,340 Descending Jacksonville Center
09:59PM 29.3564 -83.5978 150° Southeast 423 487 30,400 -2,820 Descending Jacksonville Center
10:00PM 29.2503 -83.5306 151° Southeast 423 487 27,800 -2,340 Descending Jacksonville Center
10:01PM 29.1483 -83.4633 150° Southeast 428 493 25,800 -1,980 Descending Jacksonville Center
10:02PM 29.0400 -83.3961 152° Southeast 433 498 23,900 -1,860 Descending Jacksonville Center
10:03PM 28.9358 -83.3314 151° Southeast 433 498 22,100 -1,800 Descending Jacksonville Center
10:04PM 28.8339 -83.2647 150° Southeast 428 493 20,400 -1,800 Descending Jacksonville Center
10:05PM 28.7381 -83.2028 150° Southeast 411 473 18,500 -1,740 Descending Jacksonville Center
10:08PM 28.5167 -83.0667 152° Southeast 378 435 14,700 -1,680 Descending Tampa TRACON
10:09PM 28.4167 -83.0000 150° Southeast 375 432 13,100 -840 Descending Tampa TRACON
10:10PM 28.3167 -82.9667 164° South 366 421 13,000 -300 Descending Tampa TRACON
10:11PM 28.2167 -82.9333 164° South 363 418 12,600 -960 Descending Tampa TRACON
10:12PM 28.1333 -82.9000 161° South 287 330 11,100 -1,680 Descending Tampa TRACON
10:13PM 28.0667 -82.8833 168° South 268 308 9,100 -2,160 Descending Tampa TRACON
10:14PM 28.0000 -82.8500 156° South 259 298 6,800 -2,400 Descending Tampa TRACON
10:15PM 27.9333 -82.8333 168° South 256 295 4,600 -1,740 Descending Tampa TRACON
10:16PM 27.8667 -82.8000 156° South 223 257 3,600 -900 Descending Tampa TRACON
10:17PM 27.8167 -82.7667 149° Southeast 187 215 2,800 -960 Descending Tampa TRACON
10:17PM 27.8167 -82.7167 90° East 175 201 1,800 -780 Descending Tampa TRACON
10:19PM 27.9000 -82.6833 North  Level FlightAware Approximate
10:20PM 27.8833 -82.6833 North 140 161 500  Level Tampa TRACON